createdAt,value
2018-02-16T00:00:47.751Z,6.03
2018-02-16T00:03:16.741Z,6.04
2018-02-16T00:05:45.763Z,6.01
2018-02-16T00:08:14.745Z,6.00
2018-02-16T00:10:43.763Z,5.99
2018-02-16T00:13:14.763Z,5.97
2018-02-16T00:15:43.752Z,5.93
2018-02-16T00:18:12.774Z,5.95
2018-02-16T00:20:41.769Z,5.92
2018-02-16T00:23:10.767Z,5.87
2018-02-16T00:25:39.763Z,5.88
2018-02-16T00:28:08.766Z,5.84
2018-02-16T00:30:37.788Z,5.83
2018-02-16T00:33:06.792Z,5.81
2018-02-16T00:35:35.771Z,5.80
2018-02-16T00:38:04.784Z,5.84
2018-02-16T00:40:34.675Z,5.78
2018-02-16T00:43:03.836Z,5.75
2018-02-16T00:45:32.756Z,5.74
2018-02-16T00:48:01.752Z,5.74
2018-02-16T00:50:30.749Z,5.77
2018-02-16T00:52:59.806Z,5.73
2018-02-16T00:55:28.767Z,5.69
2018-02-16T00:57:57.738Z,5.68
2018-02-16T01:00:26.740Z,5.67
2018-02-16T01:02:55.767Z,5.65
2018-02-16T01:05:24.735Z,5.65
2018-02-16T01:07:53.762Z,5.59
2018-02-16T01:10:22.723Z,5.57
2018-02-16T01:12:51.767Z,5.54
2018-02-16T01:15:20.794Z,5.49
2018-02-16T01:17:49.740Z,5.47
2018-02-16T01:20:18.757Z,5.50
2018-02-16T01:24:56.394Z,5.48
2018-02-16T01:27:26.404Z,5.47
2018-02-16T01:38:12.470Z,5.39
2018-02-16T01:40:41.995Z,5.33
2018-02-16T01:43:11.493Z,5.34
2018-02-16T01:45:41.435Z,5.32
2018-02-16T01:48:11.396Z,5.33
2018-02-16T01:57:43.821Z,5.24
2018-02-16T02:00:13.258Z,5.21
2018-02-16T02:02:42.954Z,5.20
2018-02-16T02:05:12.415Z,5.21
2018-02-16T02:07:42.496Z,5.15
2018-02-16T02:10:13.640Z,5.14
2018-02-16T02:12:43.453Z,5.10
2018-02-16T02:21:12.552Z,5.07
2018-02-16T02:23:42.584Z,5.05
2018-02-16T02:26:13.842Z,5.06
2018-02-16T02:28:42.923Z,5.02
2018-02-16T02:39:35.804Z,5.00
2018-02-16T02:42:04.823Z,4.95
2018-02-16T02:44:33.774Z,4.96
2018-02-16T02:47:02.820Z,4.97
2018-02-16T02:49:31.775Z,4.91
2018-02-16T02:52:00.787Z,4.92
2018-02-16T02:54:29.745Z,4.90
2018-02-16T02:56:58.776Z,4.91
2018-02-16T02:59:27.784Z,4.89
2018-02-16T03:01:56.829Z,4.87
2018-02-16T03:04:25.791Z,4.87
2018-02-16T03:06:54.795Z,4.85
2018-02-16T03:09:23.811Z,4.83
2018-02-16T03:11:52.779Z,4.84
2018-02-16T03:14:21.756Z,4.79
2018-02-16T03:16:50.760Z,4.80
2018-02-16T03:19:19.749Z,4.81
2018-02-16T03:21:48.774Z,4.77
2018-02-16T03:24:17.749Z,4.77
2018-02-16T03:26:46.747Z,4.84
2018-02-16T03:29:15.734Z,4.81
2018-02-16T03:31:44.767Z,4.73
2018-02-16T03:34:14.786Z,4.76
2018-02-16T03:36:43.777Z,4.70
2018-02-16T03:39:12.764Z,4.70
2018-02-16T03:41:41.824Z,4.70
2018-02-16T03:44:11.062Z,4.66
2018-02-16T03:46:40.105Z,4.69
2018-02-16T03:49:09.104Z,4.66
2018-02-16T03:51:38.573Z,4.65
2018-02-16T03:54:08.018Z,4.67
2018-02-16T03:56:37.086Z,4.65
2018-02-16T03:59:06.225Z,4.67
2018-02-16T04:01:35.808Z,4.65
2018-02-16T04:04:04.778Z,4.67
2018-02-16T04:06:33.780Z,4.66
2018-02-16T04:09:02.815Z,4.65
2018-02-16T04:11:31.809Z,4.60
2018-02-16T04:14:00.805Z,4.64
2018-02-16T04:16:29.881Z,4.64
2018-02-16T04:18:58.894Z,4.63
2018-02-16T04:21:27.863Z,4.63
2018-02-16T04:23:56.792Z,4.59
2018-02-16T04:26:25.789Z,4.57
2018-02-16T04:28:54.875Z,4.56
2018-02-16T04:31:23.898Z,4.55
2018-02-16T04:33:52.782Z,4.53
2018-02-16T04:36:21.772Z,4.51
2018-02-16T04:38:50.748Z,4.54
2018-02-16T04:41:19.788Z,4.55
2018-02-16T04:43:48.803Z,4.53
2018-02-16T04:46:17.883Z,4.48
2018-02-16T04:48:47.091Z,4.48
2018-02-16T04:51:16.258Z,4.53
2018-02-16T04:53:45.748Z,4.48
2018-02-16T04:56:14.860Z,4.49
2018-02-16T04:58:44.055Z,4.46
2018-02-16T05:01:13.265Z,4.46
2018-02-16T05:03:42.794Z,4.41
2018-02-16T05:06:11.987Z,4.45
2018-02-16T05:08:43.729Z,4.44
2018-02-16T05:11:12.797Z,4.44
2018-02-16T05:13:41.795Z,4.45
2018-02-16T05:16:11.074Z,4.44
2018-02-16T05:18:40.212Z,4.43
2018-02-16T05:21:09.778Z,4.40
2018-02-16T05:23:38.836Z,4.43
2018-02-16T05:26:07.856Z,4.38
2018-02-16T05:28:36.858Z,4.36
2018-02-16T05:31:06.275Z,4.34
2018-02-16T05:33:35.887Z,4.36
2018-02-16T05:36:04.879Z,4.40
2018-02-16T05:38:33.904Z,4.36
2018-02-16T05:41:03.092Z,4.37
2018-02-16T05:43:32.474Z,4.38
2018-02-16T05:46:01.832Z,4.34
2018-02-16T05:48:30.894Z,4.34
2018-02-16T05:50:59.859Z,4.36
2018-02-16T05:53:28.884Z,4.32
2018-02-16T05:55:57.806Z,4.32
2018-02-16T05:58:26.759Z,4.35
2018-02-16T06:00:56.207Z,4.33
2018-02-16T06:03:25.773Z,4.31
2018-02-16T06:05:55.204Z,4.33
2018-02-16T06:08:24.814Z,4.33
2018-02-16T06:10:53.878Z,4.30
2018-02-16T06:13:23.305Z,4.29
2018-02-16T06:15:52.795Z,4.30
2018-02-16T06:18:22.251Z,4.26
2018-02-16T06:20:51.763Z,4.26
2018-02-16T06:23:20.783Z,4.23
2018-02-16T06:28:37.541Z,4.23
2018-02-16T06:31:07.526Z,4.24
2018-02-16T06:33:37.199Z,4.25
2018-02-16T06:36:06.826Z,4.24
2018-02-16T06:38:36.216Z,4.23
2018-02-16T06:41:05.762Z,4.25
2018-02-16T06:43:35.069Z,4.29
2018-02-16T06:46:04.837Z,4.23
2018-02-16T06:48:34.286Z,4.22
2018-02-16T06:51:03.791Z,4.26
2018-02-16T06:53:33.206Z,4.22
2018-02-16T06:56:04.706Z,4.21
2018-02-16T06:58:34.710Z,4.23
2018-02-16T07:01:04.388Z,4.23
2018-02-16T07:03:34.280Z,4.22
2018-02-16T07:06:04.330Z,4.25
2018-02-16T07:08:34.037Z,4.20
2018-02-16T07:11:03.875Z,4.19
2018-02-16T07:13:33.611Z,4.19
2018-02-16T07:16:02.886Z,4.21
2018-02-16T07:18:32.594Z,4.15
2018-02-16T07:21:02.442Z,4.19
2018-02-16T07:23:32.098Z,4.21
2018-02-16T07:26:01.810Z,4.16
2018-02-16T07:28:31.844Z,4.21
2018-02-16T07:31:01.538Z,4.18
2018-02-16T07:33:31.151Z,4.17
2018-02-16T07:36:00.913Z,4.14
2018-02-16T07:38:30.350Z,4.16
2018-02-16T07:41:00.124Z,4.16
2018-02-16T07:43:29.874Z,4.13
2018-02-16T07:45:59.388Z,4.11
2018-02-16T07:48:29.237Z,4.11
2018-02-16T07:50:58.886Z,4.10
2018-02-16T07:53:28.274Z,4.11
2018-02-16T07:55:57.917Z,4.07
2018-02-16T07:58:27.524Z,4.05
2018-02-16T08:00:56.944Z,4.03
2018-02-16T08:03:26.400Z,4.04
2018-02-16T08:06:14.836Z,4.05
2018-02-16T08:08:44.820Z,4.07
2018-02-16T08:11:14.695Z,4.05
2018-02-16T08:30:39.175Z,3.98
2018-02-16T08:41:25.782Z,4.02
2018-02-16T08:43:55.963Z,3.99
2018-02-16T08:46:28.540Z,3.98
2018-02-16T08:48:57.819Z,3.96
2018-02-16T08:51:27.208Z,3.99
2018-02-16T08:53:56.926Z,4.01
2018-02-16T08:56:26.794Z,3.98
2018-02-16T08:58:56.274Z,3.98
2018-02-16T09:01:25.837Z,3.99
2018-02-16T09:03:55.773Z,4.03
2018-02-16T09:06:25.490Z,3.99
2018-02-16T09:08:54.931Z,3.97
2018-02-16T09:11:24.646Z,3.98
2018-02-16T09:13:54.327Z,3.97
2018-02-16T09:16:23.833Z,3.99
2018-02-16T09:18:53.149Z,3.97
2018-02-16T09:21:22.966Z,3.98
2018-02-16T09:23:52.219Z,3.95
2018-02-16T09:26:23.887Z,3.96
2018-02-16T09:28:53.730Z,3.98
2018-02-16T09:31:23.301Z,3.97
2018-02-16T09:33:52.868Z,3.95
2018-02-16T09:36:23.371Z,3.97
2018-02-16T09:49:33.601Z,3.96
2018-02-16T09:52:02.866Z,3.98
2018-02-16T09:54:32.263Z,3.97
2018-02-16T09:57:01.964Z,3.94
2018-02-16T09:59:31.256Z,3.95
2018-02-16T10:02:02.746Z,3.97
2018-02-16T10:04:35.661Z,3.96
2018-02-16T10:07:05.738Z,3.97
2018-02-16T10:09:35.229Z,3.97
2018-02-16T10:12:04.786Z,3.96
2018-02-16T10:14:36.134Z,3.94
2018-02-16T10:17:09.607Z,3.97
2018-02-16T10:19:42.878Z,3.97
2018-02-16T10:22:12.119Z,3.99
2018-02-16T10:24:41.725Z,4.01
2018-02-16T10:27:11.322Z,4.02
2018-02-16T10:29:40.917Z,4.01
2018-02-16T10:32:10.388Z,4.01
2018-02-16T10:34:40.613Z,4.02
2018-02-16T10:37:09.916Z,4.04
2018-02-16T10:39:39.464Z,4.02
2018-02-16T10:42:10.735Z,4.02
2018-02-16T10:44:42.725Z,4.05
2018-02-16T10:47:15.258Z,4.09
2018-02-16T10:49:47.811Z,4.09
2018-02-16T10:52:19.410Z,4.11
2018-02-16T10:54:49.005Z,4.12
2018-02-16T10:57:18.405Z,4.15
2018-02-16T10:59:47.819Z,4.15
2018-02-16T11:02:25.261Z,4.16
2018-02-16T11:05:00.203Z,4.18
2018-02-16T11:07:35.466Z,4.20
2018-02-16T11:10:05.433Z,4.24
2018-02-16T11:12:35.300Z,4.24
2018-02-16T11:15:06.682Z,4.25
2018-02-16T11:17:39.993Z,4.25
2018-02-16T11:20:09.673Z,4.27
2018-02-16T11:22:38.965Z,4.28
2018-02-16T11:25:08.233Z,4.29
2018-02-16T11:27:37.785Z,4.30
2018-02-16T11:30:07.492Z,4.31
2018-02-16T11:32:37.309Z,4.32
2018-02-16T11:35:06.872Z,4.31
2018-02-16T11:37:38.114Z,4.30
2018-02-16T11:40:07.835Z,4.32
2018-02-16T11:42:37.238Z,4.40
2018-02-16T11:45:06.880Z,4.41
2018-02-16T11:47:36.071Z,4.43
2018-02-16T11:50:05.732Z,4.43
2018-02-16T11:52:35.082Z,4.40
2018-02-16T11:55:04.280Z,4.39
2018-02-16T11:57:33.811Z,4.42
2018-02-16T12:02:38.689Z,4.46
2018-02-16T12:05:08.110Z,4.46
2018-02-16T12:07:37.951Z,4.52
2018-02-16T12:10:07.717Z,4.52
2018-02-16T12:12:37.905Z,4.48
2018-02-16T12:15:07.456Z,4.46
2018-02-16T12:17:36.913Z,4.50
2018-02-16T12:20:06.779Z,4.52
2018-02-16T12:25:10.882Z,4.53
2018-02-16T12:47:01.571Z,4.59
2018-02-16T12:49:31.868Z,4.59
2018-02-16T12:52:01.832Z,4.60
2018-02-16T13:02:55.543Z,4.66
2018-02-16T13:05:25.241Z,4.68
2018-02-16T13:07:54.734Z,4.68
2018-02-16T13:10:24.412Z,4.70
2018-02-16T13:12:53.979Z,4.69
2018-02-16T13:15:23.343Z,4.70
2018-02-16T13:17:53.127Z,4.71
2018-02-16T13:20:22.739Z,4.71
2018-02-16T13:22:52.299Z,4.74
2018-02-16T13:25:21.769Z,4.75
2018-02-16T13:27:51.363Z,4.76
2018-02-16T13:30:20.948Z,4.78
2018-02-16T13:32:50.993Z,4.79
2018-02-16T13:35:20.698Z,4.80
2018-02-16T13:37:50.525Z,4.83
2018-02-16T13:40:20.277Z,4.82
2018-02-16T13:42:50.452Z,4.85
2018-02-16T13:45:19.801Z,4.87
2018-02-16T13:47:49.337Z,4.88
2018-02-16T13:50:18.834Z,4.89
2018-02-16T13:52:48.352Z,4.93
2018-02-16T13:58:05.435Z,5.01
2018-02-16T14:00:36.658Z,5.02
2018-02-16T14:03:07.650Z,5.00
2018-02-16T14:05:37.909Z,4.99
2018-02-16T14:17:59.564Z,5.06
2018-02-16T14:20:31.768Z,5.10
2018-02-16T14:23:02.757Z,5.09
2018-02-16T14:25:32.889Z,5.10
2018-02-16T14:28:02.786Z,5.12
2018-02-16T14:30:32.958Z,5.14
2018-02-16T14:33:03.843Z,5.14
2018-02-16T14:42:33.535Z,5.19
2018-02-16T14:45:03.780Z,5.20
2018-02-16T14:47:34.589Z,5.21
2018-02-16T14:50:04.516Z,5.22
2018-02-16T14:52:35.697Z,5.23
2018-02-16T14:55:05.810Z,5.24
2018-02-16T14:57:35.292Z,5.23
2018-02-16T15:00:04.908Z,5.24
2018-02-16T15:02:34.196Z,5.25
2018-02-16T15:05:04.327Z,5.26
2018-02-16T15:07:34.409Z,5.27
2018-02-16T15:10:03.922Z,5.27
2018-02-16T15:12:34.316Z,5.29
2018-02-16T15:15:05.733Z,5.29
2018-02-16T15:17:37.720Z,5.30
2018-02-16T15:20:09.717Z,5.31
2018-02-16T15:22:43.638Z,5.33
2018-02-16T15:25:16.823Z,5.35
2018-02-16T15:27:48.731Z,5.35
2018-02-16T15:30:20.709Z,5.35
2018-02-16T15:32:52.839Z,5.36
2018-02-16T15:35:24.746Z,5.38
2018-02-16T15:37:56.661Z,5.39
2018-02-16T15:40:26.309Z,5.37
2018-02-16T15:42:56.350Z,5.39
2018-02-16T15:45:25.857Z,5.42
2018-02-16T15:47:55.402Z,5.43
2018-02-16T15:50:24.837Z,5.46
2018-02-16T15:52:54.282Z,5.45
2018-02-16T15:55:23.884Z,5.44
2018-02-16T15:57:53.724Z,5.44
2018-02-16T16:00:23.121Z,5.46
2018-02-16T16:02:52.913Z,5.45
2018-02-16T16:05:22.644Z,5.46
2018-02-16T16:07:53.744Z,5.47
2018-02-16T16:10:24.773Z,5.49
2018-02-16T16:12:54.107Z,5.51
2018-02-16T16:15:23.844Z,5.50
2018-02-16T16:17:53.369Z,5.50
2018-02-16T16:20:23.485Z,5.54
2018-02-16T16:22:54.740Z,5.53
2018-02-16T16:25:26.961Z,5.53
2018-02-16T16:27:58.719Z,5.51
2018-02-16T16:30:30.787Z,5.49
2018-02-16T16:33:03.245Z,5.55
2018-02-16T16:35:35.807Z,5.57
2018-02-16T16:38:09.205Z,5.52
2018-02-16T16:40:39.623Z,5.50
2018-02-16T16:43:11.464Z,5.52
2018-02-16T16:45:41.289Z,5.51
2018-02-16T16:48:10.881Z,5.55
2018-02-16T16:50:40.413Z,5.57
2018-02-16T16:53:09.955Z,5.54
2018-02-16T16:55:39.508Z,5.53
2018-02-16T16:58:09.270Z,5.52
2018-02-16T17:00:38.761Z,5.52
2018-02-16T17:03:29.767Z,5.50
